Time;durP1;ratioP1;P1;durP2;ratioP2;P2;SDS_P1;SDS_P2;PMS_P1;PMS_P2;Temp;Humidity;BMP_temperature;BMP_pressure;BME280_temperature;BME280_humidity;BME280_pressure;Samples;Min_cycle;Max_cycle;Signal;HPM_P1;HPM_P2
2021/12/27 08:25:17;;;;;;;35.15;13.62;;;;;;;-7.08;69.78;99099.23;1819177;79;23490;-40
2021/12/27 08:27:44;;;;;;;40.10;14.43;;;;;;;-7.07;69.69;99100.97;1793257;80;21062;-40
2021/12/27 08:30:12;;;;;;;44.35;15.23;;;;;;;-6.97;69.34;99110.47;1793138;80;20994;-40
2021/12/27 08:32:41;;;;;;;;;;;;;;;-6.97;69.26;99106.64;1780340;80;20979;-40
2021/12/27 08:35:08;;;;;;;44.95;14.28;;;;;;;-6.86;69.09;99109.72;1753105;80;20110;-40
2021/12/27 08:37:34;;;;;;;40.43;15.10;;;;;;;-6.75;68.73;99110.70;1753294;80;21010;-39
2021/12/27 08:40:01;;;;;;;36.58;13.80;;;;;;;-6.80;68.71;99107.26;1753152;81;20968;-39
2021/12/27 08:42:26;;;;;;;29.25;11.53;;;;;;;-6.75;68.59;99110.70;1753331;82;21000;-39
2021/12/27 08:44:53;;;;;;;27.00;11.03;;;;;;;-6.70;68.46;99098.83;1753014;80;21492;-39
2021/12/27 08:47:19;;;;;;;30.10;11.85;;;;;;;-6.68;68.54;99111.64;1753466;80;21023;-40
2021/12/27 08:49:46;;;;;;;37.33;13.93;;;;;;;-6.68;68.56;99114.19;1753546;82;21593;-40
2021/12/27 08:52:12;;;;;;;30.17;11.60;;;;;;;-6.57;68.59;99111.32;1753249;81;20986;-39
2021/12/27 08:54:39;;;;;;;39.77;17.00;;;;;;;-6.46;68.49;99108.87;1753411;82;20990;-40
2021/12/27 08:57:09;;;;;;;46.85;18.42;;;;;;;-6.44;68.89;99112.30;1753280;81;21035;-40
2021/12/27 08:59:33;;;;;;;53.50;19.60;;;;;;;-6.24;68.44;99109.54;1752928;82;20963;-41
2021/12/27 09:01:59;;;;;;;50.00;16.27;;;;;;;-5.93;67.76;99100.81;1753061;82;20963;-42
2021/12/27 09:04:25;;;;;;;41.83;15.53;;;;;;;-5.54;67.40;99097.23;1753227;82;20991;-41
2021/12/27 09:06:51;;;;;;;32.25;12.88;;;;;;;-5.46;66.77;99093.84;1760567;80;21037;-40
2021/12/27 09:09:17;;;;;;;34.53;13.32;;;;;;;-5.55;66.07;99083.55;1761417;81;21491;-40
2021/12/27 09:11:44;;;;;;;31.00;12.25;;;;;;;-5.48;66.38;99081.89;1761412;81;20998;-40
2021/12/27 09:14:10;;;;;;;33.02;12.68;;;;;;;-5.58;66.40;99092.52;1761596;81;21037;-40
2021/12/27 09:16:36;;;;;;;33.30;13.68;;;;;;;-5.53;66.58;99089.56;1761500;81;20997;-40
2021/12/27 09:19:02;;;;;;;42.80;14.60;;;;;;;-5.47;66.86;99081.91;1761470;81;21038;-40
2021/12/27 09:21:28;;;;;;;36.63;13.60;;;;;;;-5.55;66.80;99070.73;1761419;81;21089;-40
2021/12/27 09:23:54;;;;;;;31.33;12.60;;;;;;;-5.48;66.78;99078.89;1757063;81;21572;-40
2021/12/27 09:26:19;;;;;;;39.18;12.00;;;;;;;-5.47;66.75;99075.50;1748354;82;21492;-41
2021/12/27 09:28:45;;;;;;;31.97;11.80;;;;;;;-5.50;66.59;99078.03;1748488;82;20995;-41
2021/12/27 09:31:11;;;;;;;38.25;13.30;;;;;;;-5.47;66.74;99066.96;1748306;82;21042;-42
2021/12/27 09:33:37;;;;;;;42.95;16.00;;;;;;;-5.41;66.81;99062.70;1766689;79;20980;-40
2021/12/27 09:36:04;;;;;;;37.55;14.25;;;;;;;-5.34;66.72;99048.66;1806319;79;21007;-40
2021/12/27 09:38:30;;;;;;;44.93;16.00;;;;;;;-5.32;66.21;99050.80;1810379;79;22095;-40
2021/12/27 09:40:55;;;;;;;47.30;15.93;;;;;;;-5.24;66.10;99052.95;1810396;79;21030;-41
2021/12/27 09:43:23;;;;;;;43.00;14.75;;;;;;;-5.22;65.53;99047.41;1810370;79;21517;-41
2021/12/27 09:45:49;;;;;;;44.40;15.45;;;;;;;-5.19;65.04;99037.17;1810539;79;21007;-40
2021/12/27 09:48:15;;;;;;;55.30;17.20;;;;;;;-5.12;65.02;99030.38;1810469;79;21449;-41
2021/12/27 09:50:52;;;;;;;43.35;15.08;;;;;;;-5.00;63.85;99015.04;1810352;79;21560;-40
2021/12/27 09:53:18;;;;;;;49.33;16.95;;;;;;;-5.00;63.85;99015.04;1809011;79;21011;-41
2021/12/27 09:55:44;;;;;;;37.53;13.95;;;;;;;-4.94;63.99;99018.89;1810291;79;20976;-41
2021/12/27 09:58:10;;;;;;;38.60;17.00;;;;;;;-4.88;63.81;99009.06;1810390;79;21099;-40
2021/12/27 10:00:37;;;;;;;50.78;20.12;;;;;;;-4.82;63.54;99003.94;1766297;79;21469;-40
2021/12/27 10:03:04;;;;;;;57.53;18.92;;;;;;;-4.77;63.49;99006.09;1753345;81;20967;-41
2021/12/27 10:05:32;;;;;;;48.03;18.33;;;;;;;-4.76;63.12;99006.97;1753539;82;21500;-42
2021/12/27 10:07:58;;;;;;;46.65;17.25;;;;;;;-4.73;63.43;99014.66;1753317;82;20975;-41
2021/12/27 10:10:24;;;;;;;49.73;18.05;;;;;;;-4.73;63.43;99014.66;1753468;81;20990;-41
2021/12/27 10:12:50;;;;;;;48.42;17.15;;;;;;;-4.74;62.81;99011.23;1752820;82;21045;-41
2021/12/27 10:15:21;;;;;;;31.87;14.10;;;;;;;-4.66;63.44;99013.41;1753614;82;21011;-43
2021/12/27 10:17:48;;;;;;;50.85;20.27;;;;;;;-4.72;61.97;99012.53;1753255;82;21534;-42
2021/12/27 10:20:19;;;;;;;47.65;18.30;;;;;;;-4.72;62.14;99006.11;1752508;82;21035;-40
2021/12/27 10:22:50;;;;;;;52.62;17.30;;;;;;;-4.68;61.69;99011.23;1753407;82;21042;-44
2021/12/27 10:25:23;;;;;;;41.15;15.58;;;;;;;-4.67;60.88;99005.27;1749996;81;21059;-40
2021/12/27 10:27:55;;;;;;;38.30;14.25;;;;;;;-4.56;61.28;99000.59;1720464;82;21495;-41
2021/12/27 10:30:25;;;;;;;47.60;13.88;;;;;;;-4.52;60.27;98999.72;1723242;83;21352;-40
2021/12/27 10:33:19;;;;;;;37.83;13.32;;;;;;;-4.46;59.25;99003.56;1723280;83;20994;-40
2021/12/27 10:35:53;;;;;;;37.65;13.48;;;;;;;-4.47;58.34;98995.02;1723037;82;21475;-40
2021/12/27 10:38:29;;;;;;;43.90;13.35;;;;;;;-4.47;58.34;98995.02;1722480;83;21034;-41
2021/12/27 10:41:10;;;;;;;31.00;11.53;;;;;;;-4.44;59.00;98997.59;1722878;82;20990;-43
2021/12/27 10:43:43;;;;;;;32.67;10.45;;;;;;;-4.45;58.80;98991.17;1723254;83;21006;-41
2021/12/27 10:46:19;;;;;;;25.48;10.32;;;;;;;-4.46;58.33;98989.05;1723091;82;21002;-42
2021/12/27 10:48:57;;;;;;;27.15;9.65;;;;;;;-4.40;58.18;98988.19;1723043;83;21051;-42
2021/12/27 10:51:20;;;;;;;26.10;9.38;;;;;;;-4.37;58.07;98981.75;1722092;83;21507;-41
2021/12/27 10:53:54;;;;;;;26.45;9.13;;;;;;;-4.42;57.26;98980.92;1722241;82;21087;-41
2021/12/27 10:56:25;;;;;;;30.30;9.43;;;;;;;-4.40;56.19;98980.48;1723219;82;21534;-41
2021/12/27 10:58:57;;;;;;;31.20;9.28;;;;;;;-4.30;57.12;98977.04;1718192;83;20971;-42
2021/12/27 11:01:27;;;;;;;31.00;9.33;;;;;;;-4.29;57.14;98974.06;1723171;83;21007;-41
2021/12/27 11:03:57;;;;;;;31.23;10.65;;;;;;;-4.21;57.76;98972.33;1722981;82;21022;-41
2021/12/27 11:06:28;;;;;;;33.98;11.05;;;;;;;-4.21;57.76;98972.33;1722614;82;21046;-41
2021/12/27 11:08:55;;;;;;;26.37;11.05;;;;;;;-4.19;57.84;98952.64;1722937;82;21064;-42
2021/12/27 11:11:24;;;;;;;37.23;13.07;;;;;;;-4.15;57.80;98954.34;1723185;82;21062;-40
2021/12/27 11:13:55;;;;;;;48.63;15.00;;;;;;;-3.95;59.52;98951.73;1723161;82;21494;-41
2021/12/27 11:16:21;;;;;;;40.38;14.38;;;;;;;-3.94;59.26;98943.18;1771347;80;21424;-42
2021/12/27 11:18:47;;;;;;;43.07;15.90;;;;;;;-3.94;59.26;98943.18;1776504;79;20962;-44
2021/12/27 11:21:17;;;;;;;42.25;14.73;;;;;;;-3.90;58.61;98948.73;1776549;80;21869;-48
2021/12/27 11:23:49;;;;;;;47.83;16.45;;;;;;;-3.84;59.17;98938.86;1775787;80;21578;-41
2021/12/27 11:26:25;;;;;;;34.50;13.08;;;;;;;-3.71;59.74;98940.55;1775812;80;20940;-43
2021/12/27 11:28:53;;;;;;;27.67;12.33;;;;;;;-3.60;59.55;98940.52;1768958;80;20968;-42
2021/12/27 11:31:28;;;;;;;35.90;12.20;;;;;;;-3.50;59.54;98938.31;1744757;80;20970;-42
2021/12/27 11:34:00;;;;;;;32.75;13.45;;;;;;;-3.51;58.09;98937.03;1774620;80;20982;-40
2021/12/27 11:36:36;;;;;;;33.67;13.55;;;;;;;-3.42;58.63;98929.72;1778126;80;20985;-42
2021/12/27 11:39:25;;;;;;;34.80;13.55;;;;;;;-3.37;59.26;98929.27;1776189;80;20960;-42
2021/12/27 11:42:11;;;;;;;42.83;14.10;;;;;;;-3.34;58.98;98921.55;1775785;80;21002;-42
2021/12/27 11:44:45;;;;;;;33.65;13.55;;;;;;;-3.25;59.70;98922.78;1779809;80;21515;-42
2021/12/27 11:47:15;;;;;;;40.23;15.78;;;;;;;-3.27;58.49;98916.80;1778889;80;21013;-41
2021/12/27 11:49:58;;;;;;;38.60;14.07;;;;;;;-3.22;58.77;98920.20;1772729;80;21542;-42
2021/12/27 11:52:28;;;;;;;41.08;16.05;;;;;;;-3.25;58.27;98916.80;1776795;80;21461;-46
2021/12/27 11:55:12;;;;;;;43.05;13.98;;;;;;;-3.22;58.13;98915.06;1776413;80;21460;-42
2021/12/27 11:57:52;;;;;;;32.35;14.05;;;;;;;-3.21;58.31;98918.03;1776553;80;20975;-41
2021/12/27 12:00:29;;;;;;;34.10;13.10;;;;;;;-3.18;58.84;98905.16;1775622;80;20963;-40
2021/12/27 12:03:10;;;;;;;42.03;14.07;;;;;;;-3.14;58.74;98900.86;1774456;80;21000;-42
2021/12/27 12:05:47;;;;;;;36.28;13.98;;;;;;;-3.10;58.44;98898.69;1773168;80;21015;-42
2021/12/27 12:08:29;;;;;;;;;;;;;;;-3.06;58.98;98896.95;1776114;80;20967;-41
2021/12/27 12:11:07;;;;;;;39.70;13.05;;;;;;;-3.11;58.28;98894.39;1770302;80;20113;-43
2021/12/27 12:13:49;;;;;;;38.58;16.10;;;;;;;-3.01;59.23;98894.77;1774008;79;21034;-41
2021/12/27 12:16:18;;;;;;;51.18;19.57;;;;;;;-2.98;59.32;98888.76;1777291;79;21040;-42
2021/12/27 12:18:55;;;;;;;55.73;20.65;;;;;;;-2.94;59.62;98888.70;1775509;80;20965;-42
2021/12/27 12:21:41;;;;;;;52.05;17.25;;;;;;;-2.91;59.67;98887.41;1776284;80;21816;-43
2021/12/27 12:24:18;;;;;;;54.33;21.55;;;;;;;-2.93;59.13;98884.00;1773841;80;20979;-43
2021/12/27 12:27:04;;;;;;;41.88;16.23;;;;;;;-2.89;59.80;98887.41;1773296;80;20967;-45
2021/12/27 12:29:43;;;;;;;40.23;15.60;;;;;;;-2.87;59.94;98883.50;1775644;79;21022;-43
2021/12/27 12:32:12;;;;;;;55.03;20.75;;;;;;;-2.93;59.64;98877.97;1773959;80;21045;-42
2021/12/27 12:34:41;;;;;;;57.30;22.05;;;;;;;-2.93;60.39;98872.42;1774236;80;21082;-43
2021/12/27 12:37:11;;;;;;;50.90;18.98;;;;;;;-2.96;60.13;98871.14;1773112;80;21503;-44
2021/12/27 12:39:48;;;;;;;46.83;18.17;;;;;;;-2.89;60.89;98862.95;1773807;79;20962;-42
2021/12/27 12:42:19;;;;;;;52.65;20.23;;;;;;;-2.94;60.73;98868.56;1774819;80;21006;-42
2021/12/27 12:44:55;;;;;;;85.65;36.15;;;;;;;-2.82;61.18;98860.76;1774315;80;21054;-42
2021/12/27 12:47:25;;;;;;;110.70;47.50;;;;;;;-2.72;61.61;98870.09;1776340;80;21465;-42
2021/12/27 12:49:51;;;;;;;85.03;33.28;;;;;;;-2.68;61.67;98868.78;1772027;80;20978;-44
2021/12/27 12:52:18;;;;;;;68.52;26.68;;;;;;;-2.69;61.97;98865.37;1772420;80;21140;-42
2021/12/27 12:54:45;;;;;;;60.25;21.75;;;;;;;-2.66;62.14;98869.62;1774307;80;21457;-42
2021/12/27 12:57:25;;;;;;;49.90;21.00;;;;;;;-2.65;61.95;98861.05;1774207;80;21147;-42
2021/12/27 12:59:58;;;;;;;52.27;22.50;;;;;;;-2.68;62.03;98864.92;1773124;80;21084;-41
2021/12/27 13:02:30;;;;;;;194.25;75.08;;;;;;;-2.71;61.82;98864.09;1777514;80;20976;-41
2021/12/27 13:05:00;;;;;;;110.68;44.40;;;;;;;-2.73;61.84;98863.25;1778054;80;21050;-41
2021/12/27 13:07:45;;;;;;;116.57;50.58;;;;;;;-2.72;62.13;98850.78;1777302;80;20966;-42
2021/12/27 13:10:23;;;;;;;64.85;25.95;;;;;;;-2.75;62.21;98866.69;1772966;79;20975;-42
2021/12/27 13:12:51;;;;;;;69.37;25.55;;;;;;;-2.74;62.24;98864.11;1777366;80;20974;-41
2021/12/27 13:15:21;;;;;;;76.70;29.63;;;;;;;-2.76;62.06;98858.12;1778463;80;21010;-41
2021/12/27 13:18:03;;;;;;;127.12;47.05;;;;;;;-2.76;62.29;98855.55;1775255;80;20978;-42
2021/12/27 13:20:35;;;;;;;124.27;46.20;;;;;;;-2.79;62.38;98857.29;1776315;80;21640;-42
2021/12/27 13:23:05;;;;;;;98.72;41.13;;;;;;;-2.84;62.27;98854.73;1777923;80;20997;-42
2021/12/27 13:25:47;;;;;;;93.72;37.53;;;;;;;-2.83;62.27;98852.60;1774173;80;21136;-42
2021/12/27 13:28:39;;;;;;;82.33;35.95;;;;;;;-2.83;62.36;98853.05;1776751;80;20967;-42
2021/12/27 13:31:19;;;;;;;87.37;35.65;;;;;;;-2.83;62.38;98844.04;1774625;80;21046;-41
2021/12/27 13:33:50;;;;;;;100.65;40.20;;;;;;;-2.89;62.37;98848.80;1776686;79;21005;-41
2021/12/27 13:36:33;;;;;;;91.92;37.98;;;;;;;-2.91;62.31;98854.37;1775900;80;21447;-44
2021/12/27 13:39:16;;;;;;;92.85;39.63;;;;;;;-3.01;62.35;98860.03;1765203;80;21000;-42
2021/12/27 13:41:52;;;;;;;95.47;40.15;;;;;;;-3.05;62.24;98862.66;1774287;80;21009;-43
2021/12/27 13:44:31;;;;;;;90.72;38.73;;;;;;;-3.16;62.38;98867.88;1777730;80;20935;-43
2021/12/27 13:47:01;;;;;;;110.52;47.67;;;;;;;-3.20;63.12;98860.61;1780518;80;21030;-41
2021/12/27 13:49:27;;;;;;;95.83;40.50;;;;;;;-3.41;63.23;98860.30;1778580;80;20985;-42
2021/12/27 13:52:03;;;;;;;120.08;47.27;;;;;;;-3.41;63.52;98865.87;1775203;80;21447;-41
2021/12/27 13:54:45;;;;;;;112.85;44.80;;;;;;;-3.37;63.60;98869.69;1780172;80;20961;-41
2021/12/27 13:57:12;;;;;;;94.80;40.90;;;;;;;-3.40;63.85;98864.59;1777444;80;20963;-41
2021/12/27 13:59:39;;;;;;;111.23;47.10;;;;;;;-3.44;63.93;98862.88;1777953;80;20951;-43
2021/12/27 14:02:07;;;;;;;91.67;38.10;;;;;;;-3.51;64.15;98867.63;1778637;80;22110;-42
2021/12/27 14:04:34;;;;;;;85.38;35.65;;;;;;;-3.58;64.12;98864.25;1774887;80;20964;-41
2021/12/27 14:07:05;;;;;;;89.07;36.15;;;;;;;-3.62;63.90;98865.14;1777254;80;20932;-42
2021/12/27 14:09:36;;;;;;;80.42;35.38;;;;;;;-3.68;63.93;98860.86;1774836;80;20959;-41
2021/12/27 14:12:09;;;;;;;80.30;33.28;;;;;;;-3.76;64.37;98862.62;1776867;80;20998;-42
2021/12/27 14:14:43;;;;;;;79.25;33.85;;;;;;;-3.77;64.19;98858.77;1774393;80;20991;-41
2021/12/27 14:17:13;;;;;;;92.75;36.03;;;;;;;-3.88;64.18;98854.52;1776655;80;20971;-41
2021/12/27 14:19:42;;;;;;;86.40;34.83;;;;;;;-3.94;64.20;98866.13;1777284;80;20963;-42
2021/12/27 14:22:19;;;;;;;81.22;35.92;;;;;;;-4.09;65.18;98864.46;1770450;80;20959;-42
2021/12/27 14:25:00;;;;;;;;;;;;;;;-4.11;65.14;98863.63;1767451;81;21050;-41
2021/12/27 14:27:36;;;;;;;91.40;38.40;;;;;;;-4.21;65.33;98856.79;1774368;81;20105;-41
2021/12/27 14:30:21;;;;;;;85.75;36.58;;;;;;;-4.23;65.44;98856.38;1774562;81;20995;-41
2021/12/27 14:32:56;;;;;;;93.35;37.45;;;;;;;-4.30;65.98;98857.66;1772910;79;21014;-42
2021/12/27 14:35:36;;;;;;;86.67;36.17;;;;;;;-4.34;65.92;98862.39;1773767;81;21011;-41
2021/12/27 14:38:22;;;;;;;94.05;36.35;;;;;;;-4.39;65.89;98858.97;1780774;79;20987;-41
2021/12/27 14:40:53;;;;;;;81.50;35.10;;;;;;;-4.44;66.56;98864.13;1792034;80;21037;-42
2021/12/27 14:43:22;;;;;;;86.78;37.40;;;;;;;-4.50;66.32;98869.69;1787985;79;22049;-41
2021/12/27 14:45:48;;;;;;;84.72;36.95;;;;;;;-4.62;66.54;98860.28;1786104;80;20995;-42
2021/12/27 14:48:16;;;;;;;93.50;41.05;;;;;;;-4.59;66.28;98865.86;1785984;80;21468;-42
2021/12/27 14:50:42;;;;;;;;;;;;;;;-4.74;67.17;98866.73;1788592;80;21047;-42
2021/12/27 14:53:09;;;;;;;94.65;39.08;;;;;;;-4.77;67.70;98868.00;1786216;80;20397;-42
2021/12/27 14:55:36;;;;;;;93.25;39.10;;;;;;;-4.77;67.26;98864.16;1785967;80;21035;-42
2021/12/27 14:58:04;;;;;;;87.40;36.70;;;;;;;-4.81;67.49;98865.87;1785568;80;20952;-41
2021/12/27 15:00:36;;;;;;;89.83;36.93;;;;;;;-4.82;67.07;98862.86;1786200;80;20979;-42
2021/12/27 15:03:02;;;;;;;84.65;35.92;;;;;;;-4.88;67.02;98869.28;1784372;80;20992;-42
2021/12/27 15:05:28;;;;;;;92.20;40.38;;;;;;;-4.93;67.09;98869.70;1754962;81;21505;-41
2021/12/27 15:07:54;;;;;;;88.30;37.17;;;;;;;-5.12;67.23;98872.27;1754804;82;21460;-41
2021/12/27 15:10:20;;;;;;;89.92;36.80;;;;;;;-5.07;67.26;98861.59;1754945;81;20964;-41
2021/12/27 15:12:46;;;;;;;79.55;35.58;;;;;;;-5.14;67.30;98861.59;1754928;82;21022;-42
2021/12/27 15:15:20;;;;;;;89.77;39.33;;;;;;;-5.14;66.82;98852.19;1755003;82;21003;-42
2021/12/27 15:17:51;;;;;;;92.65;38.20;;;;;;;-5.22;67.18;98853.87;1755052;82;21015;-41
2021/12/27 15:20:21;;;;;;;89.77;37.15;;;;;;;-5.28;67.16;98861.56;1754670;82;21038;-41
2021/12/27 15:22:48;;;;;;;83.30;34.75;;;;;;;-5.28;67.57;98863.69;1754481;82;20967;-41
2021/12/27 15:25:14;;;;;;;77.92;32.85;;;;;;;-5.33;67.42;98865.42;1751889;81;21008;-41
2021/12/27 15:27:41;;;;;;;76.57;35.17;;;;;;;-5.36;67.38;98858.15;1740852;82;21003;-41
2021/12/27 15:30:09;;;;;;;85.50;36.20;;;;;;;-5.38;67.55;98860.70;1741667;82;21516;-41
2021/12/27 15:32:37;;;;;;;84.07;35.30;;;;;;;-5.38;67.29;98854.30;1741153;82;21024;-42
2021/12/27 15:35:11;;;;;;;90.95;39.10;;;;;;;-5.50;67.59;98853.83;1741428;82;21010;-42
2021/12/27 15:37:37;;;;;;;83.67;35.03;;;;;;;-5.50;67.59;98853.83;1741147;82;20992;-41
2021/12/27 15:40:06;;;;;;;86.93;37.97;;;;;;;-5.45;67.40;98867.52;1741947;82;21116;-41
2021/12/27 15:42:32;;;;;;;91.75;38.58;;;;;;;-5.53;67.69;98861.53;1741495;82;21043;-41
2021/12/27 15:44:58;;;;;;;106.32;44.20;;;;;;;-5.51;67.70;98867.52;1741273;81;21504;-42
2021/12/27 15:47:24;;;;;;;75.17;35.33;;;;;;;-5.52;67.84;98867.50;1742777;81;21421;-41
2021/12/27 15:49:50;;;;;;;115.47;48.52;;;;;;;-5.55;67.76;98870.89;1741249;82;20936;-41
2021/12/27 15:52:16;;;;;;;114.22;51.63;;;;;;;-5.56;67.90;98869.64;1741468;82;20975;-41
2021/12/27 15:54:44;;;;;;;95.12;40.75;;;;;;;-5.58;67.99;98877.31;1741318;82;20967;-41
2021/12/27 15:57:10;;;;;;;93.55;40.90;;;;;;;-5.58;67.99;98877.31;1740759;82;21441;-41
2021/12/27 15:59:36;;;;;;;104.87;44.03;;;;;;;-5.59;68.05;98879.44;1741394;82;20980;-42
2021/12/27 16:02:01;;;;;;;91.45;39.27;;;;;;;-5.65;68.08;98886.67;1741603;82;21552;-41
2021/12/27 16:04:27;;;;;;;85.32;36.83;;;;;;;-5.63;68.04;98891.38;1741508;82;21481;-41
2021/12/27 16:06:53;;;;;;;87.55;36.48;;;;;;;-5.62;68.33;98890.54;1741589;82;20948;-41
2021/12/27 16:09:19;;;;;;;84.87;37.23;;;;;;;-5.59;67.69;98885.84;1741585;82;20976;-41
2021/12/27 16:11:45;;;;;;;87.82;37.38;;;;;;;-5.69;67.93;98880.27;1741618;81;21473;-41
2021/12/27 16:14:11;;;;;;;89.60;39.98;;;;;;;-5.62;67.82;98882.85;1741012;82;20988;-41
2021/12/27 16:16:38;;;;;;;86.15;37.08;;;;;;;-5.61;67.51;98877.30;1741578;82;20988;-42
2021/12/27 16:19:04;;;;;;;87.80;38.23;;;;;;;-5.63;67.56;98883.69;1741537;82;21027;-41
2021/12/27 16:21:30;;;;;;;89.60;38.73;;;;;;;-5.70;67.78;98883.23;1741644;82;21011;-41
2021/12/27 16:23:56;;;;;;;106.20;43.78;;;;;;;-5.69;67.85;98872.59;1740980;82;21024;-42
2021/12/27 16:26:24;;;;;;;110.57;46.45;;;;;;;-5.67;67.86;98881.13;1742366;82;21505;-42
2021/12/27 16:28:52;;;;;;;100.65;41.33;;;;;;;-5.66;67.66;98881.11;1744681;82;20996;-42
2021/12/27 16:31:19;;;;;;;87.70;38.10;;;;;;;-5.70;67.63;98881.95;1770625;79;20975;-49
2021/12/27 16:33:46;;;;;;;102.22;41.65;;;;;;;-5.70;67.52;98879.83;1767259;80;21470;-42
2021/12/27 16:36:13;;;;;;;122.42;48.80;;;;;;;-5.85;67.97;98885.75;1757070;80;21074;-42
2021/12/27 16:38:40;;;;;;;;;;;;;;;-5.85;68.19;98879.35;1772007;80;20960;-42
2021/12/27 16:41:07;;;;;;;120.92;51.50;;;;;;;-5.87;68.28;98881.06;1771692;81;20148;-42
2021/12/27 16:43:33;;;;;;;107.27;43.68;;;;;;;-5.91;68.09;98880.19;1771479;81;20991;-41
2021/12/27 16:45:59;;;;;;;111.22;49.20;;;;;;;-5.91;68.21;98886.59;1771611;81;21015;-42
2021/12/27 16:48:25;;;;;;;99.67;41.23;;;;;;;-5.90;68.18;98880.60;1770933;80;20999;-42
2021/12/27 16:50:54;;;;;;;114.82;44.93;;;;;;;-5.93;68.03;98888.69;1771683;81;21011;-42
2021/12/27 16:53:20;;;;;;;99.97;40.15;;;;;;;-6.02;68.56;98886.97;1771579;81;21034;-42
2021/12/27 16:55:47;;;;;;;100.65;39.08;;;;;;;-5.93;68.54;98890.84;1770442;81;21539;-42
2021/12/27 16:58:13;;;;;;;100.78;40.80;;;;;;;-5.95;68.11;98889.14;1771420;81;21043;-41
2021/12/27 17:00:40;;;;;;;101.27;41.15;;;;;;;-5.96;68.22;98891.30;1771173;81;21000;-41
2021/12/27 17:03:08;;;;;;;91.32;38.17;;;;;;;-5.93;68.53;98890.84;1771677;81;20996;-41
2021/12/27 17:05:37;;;;;;;88.03;36.85;;;;;;;-5.97;68.43;98889.56;1771289;81;20976;-42
2021/12/27 17:08:04;;;;;;;95.42;38.85;;;;;;;-5.95;68.41;98867.38;1771898;81;21040;-40
2021/12/27 17:10:32;;;;;;;103.32;44.58;;;;;;;-5.95;68.41;98867.38;1771809;80;21015;-40
2021/12/27 17:12:59;;;;;;;87.17;34.92;;;;;;;-5.86;68.38;98876.34;1771801;80;21011;-42
2021/12/27 17:15:34;;;;;;;100.45;38.75;;;;;;;-5.85;68.48;98872.52;1771801;81;21019;-41
2021/12/27 17:18:02;;;;;;;75.03;33.28;;;;;;;-5.76;68.69;98879.82;1771229;80;20980;-41
2021/12/27 17:20:30;;;;;;;89.35;38.25;;;;;;;-5.66;68.35;98884.11;1771643;81;21003;-40
2021/12/27 17:22:56;;;;;;;84.37;36.28;;;;;;;-5.82;68.87;98864.86;1771619;81;21034;-40
2021/12/27 17:25:23;;;;;;;95.27;38.00;;;;;;;-5.68;68.68;98878.13;1771170;80;21019;-41
2021/12/27 17:27:50;;;;;;;86.13;36.93;;;;;;;-5.60;68.56;98879.87;1773796;81;20992;-41
2021/12/27 17:30:18;;;;;;;91.72;38.42;;;;;;;-5.60;69.14;98873.46;1773382;81;21501;-41
2021/12/27 17:32:44;;;;;;;83.30;35.58;;;;;;;-5.57;69.12;98870.47;1773635;81;20964;-42
2021/12/27 17:35:11;;;;;;;92.87;37.97;;;;;;;-5.50;69.25;98864.08;1773823;81;21022;-42
2021/12/27 17:37:37;;;;;;;89.92;38.15;;;;;;;-5.46;69.22;98868.79;1776907;81;21022;-41
2021/12/27 17:40:08;;;;;;;76.50;32.08;;;;;;;-5.44;69.41;98865.39;1778836;81;21007;-41
2021/12/27 17:42:34;;;;;;;78.55;32.35;;;;;;;-5.44;69.84;98865.39;1778744;81;20999;-41
2021/12/27 17:45:00;;;;;;;76.72;31.10;;;;;;;-5.38;69.94;98857.27;1778534;80;21027;-42
2021/12/27 17:47:26;;;;;;;80.77;32.13;;;;;;;-5.38;69.69;98853.02;1778753;80;20995;-41
2021/12/27 17:49:52;;;;;;;84.40;34.03;;;;;;;-5.33;69.91;98850.45;1778660;80;21018;-43
2021/12/27 17:52:18;;;;;;;84.50;35.13;;;;;;;-5.31;70.05;98838.48;1778798;81;21031;-41
2021/12/27 17:54:44;;;;;;;75.28;32.63;;;;;;;-5.29;69.91;98842.78;1778676;81;20996;-42
2021/12/27 17:57:10;;;;;;;82.33;32.03;;;;;;;-5.34;70.23;98847.47;1778656;81;21425;-42
2021/12/27 17:59:36;;;;;;;74.10;33.95;;;;;;;-5.30;70.20;98838.92;1778761;80;20988;-41
2021/12/27 18:02:03;;;;;;;74.80;32.13;;;;;;;-5.24;70.63;98845.33;1778738;81;21600;-41
2021/12/27 18:04:29;;;;;;;75.42;31.27;;;;;;;-5.18;70.74;98844.07;1778624;81;21003;-41
2021/12/27 18:06:55;;;;;;;63.97;29.73;;;;;;;-5.11;70.35;98840.66;1778871;81;20995;-41
2021/12/27 18:09:21;;;;;;;73.25;32.53;;;;;;;-5.09;70.71;98845.36;1778338;80;21579;-41
2021/12/27 18:11:48;;;;;;;76.72;30.62;;;;;;;-5.07;70.77;98848.77;1778780;81;21773;-42
2021/12/27 18:14:19;;;;;;;70.62;30.65;;;;;;;-5.01;71.41;98852.61;1778446;80;21191;-41
2021/12/27 18:16:45;;;;;;;73.78;29.75;;;;;;;-4.92;71.14;98851.76;1778243;81;21515;-42
2021/12/27 18:19:11;;;;;;;65.32;28.35;;;;;;;-4.94;72.17;98843.66;1756346;81;20972;-42
2021/12/27 18:21:37;;;;;;;65.87;29.50;;;;;;;-4.90;72.36;98847.92;1744043;80;20983;-43
2021/12/27 18:24:06;;;;;;;63.52;28.75;;;;;;;-4.80;71.66;98844.50;1748485;80;20983;-41
2021/12/27 18:26:33;;;;;;;67.45;27.50;;;;;;;-4.77;71.80;98845.77;1756320;80;21014;-42
2021/12/27 18:29:05;;;;;;;;;;;;;;;-4.77;71.80;98845.77;1758680;82;21053;-42
2021/12/27 18:31:31;;;;;;;71.15;30.82;;;;;;;-4.68;71.82;98839.77;1685469;85;20412;-42
2021/12/27 18:33:58;;;;;;;63.52;28.83;;;;;;;-4.68;71.75;98844.47;1694435;83;21556;-42
2021/12/27 18:36:25;;;;;;;63.33;28.05;;;;;;;-4.68;71.98;98838.05;1694329;84;21021;-42
2021/12/27 18:38:50;;;;;;;61.92;27.67;;;;;;;-4.64;72.15;98835.05;1694295;85;21010;-42
2021/12/27 18:41:16;;;;;;;66.82;27.65;;;;;;;-4.57;71.95;98833.34;1694288;85;21017;-42
2021/12/27 18:43:43;;;;;;;73.55;27.90;;;;;;;-4.55;72.04;98829.91;1694260;84;20993;-41
2021/12/27 18:46:09;;;;;;;63.35;26.57;;;;;;;-4.47;71.90;98828.63;1694278;84;21049;-42
2021/12/27 18:48:36;;;;;;;58.73;26.87;;;;;;;-4.53;72.64;98823.49;1694545;85;21060;-41
2021/12/27 18:51:04;;;;;;;57.33;24.95;;;;;;;-4.45;72.38;98829.48;1694435;85;21049;-41
2021/12/27 18:53:29;;;;;;;66.17;29.65;;;;;;;-4.39;72.21;98824.75;1694303;84;21017;-42
2021/12/27 18:55:59;;;;;;;57.98;26.90;;;;;;;-4.47;72.87;98822.22;1694335;85;21583;-42
2021/12/27 18:58:23;;;;;;;56.13;26.10;;;;;;;-4.37;72.90;98829.45;1711617;83;21015;-42
2021/12/27 19:00:49;;;;;;;56.95;25.65;;;;;;;-4.40;73.37;98821.34;1723238;83;21015;-42
2021/12/27 19:03:15;;;;;;;57.00;24.72;;;;;;;-4.32;73.24;98818.31;1723177;83;21138;-41
2021/12/27 19:05:41;;;;;;;51.02;25.00;;;;;;;-4.29;73.11;98814.45;1723196;83;21039;-41
2021/12/27 19:08:06;;;;;;;53.08;22.52;;;;;;;-4.32;73.59;98813.61;1723259;83;21019;-41
2021/12/27 19:10:32;;;;;;;49.55;23.22;;;;;;;-4.32;73.69;98812.33;1723296;83;21015;-41
2021/12/27 19:12:58;;;;;;;48.78;22.82;;;;;;;-4.27;73.68;98824.73;1723247;83;21039;-41
2021/12/27 19:15:27;;;;;;;53.40;23.30;;;;;;;-4.36;74.13;98819.19;1723277;83;20999;-42
2021/12/27 19:17:53;;;;;;;44.60;21.75;;;;;;;-4.35;74.05;98811.05;1723283;83;21073;-41
2021/12/27 19:20:20;;;;;;;55.25;24.32;;;;;;;-4.28;74.12;98813.58;1723480;83;21526;-42
2021/12/27 19:22:47;;;;;;;52.70;24.20;;;;;;;-4.26;73.77;98811.89;1723403;83;21032;-42
2021/12/27 19:25:13;;;;;;;54.90;25.68;;;;;;;-4.29;73.72;98814.45;1723402;83;21540;-42
2021/12/27 19:27:40;;;;;;;53.90;24.55;;;;;;;-4.31;73.84;98812.33;1706964;83;21036;-41
2021/12/27 19:30:09;;;;;;;50.85;23.47;;;;;;;-4.24;73.29;98810.58;1702667;84;21040;-42
2021/12/27 19:32:37;;;;;;;55.00;23.60;;;;;;;-4.33;73.93;98812.77;1702375;84;21024;-44
2021/12/27 19:35:07;;;;;;;54.80;24.90;;;;;;;-4.33;73.93;98812.77;1702543;84;21032;-42
2021/12/27 19:37:34;;;;;;;58.60;27.35;;;;;;;-4.32;73.76;98814.45;1702500;84;21055;-42
2021/12/27 19:40:01;;;;;;;52.67;23.77;;;;;;;-4.27;73.74;98816.59;1676490;84;21544;-40
2021/12/27 19:42:26;;;;;;;56.33;25.20;;;;;;;-4.30;74.37;98823.45;1702692;84;21462;-42
2021/12/27 19:44:52;;;;;;;58.73;24.65;;;;;;;-4.40;74.62;98825.20;1702377;84;21037;-41
2021/12/27 19:47:18;;;;;;;55.75;25.37;;;;;;;-4.33;74.70;98820.47;1702363;84;21000;-41
2021/12/27 19:49:45;;;;;;;58.70;27.73;;;;;;;-4.26;74.69;98823.85;1702410;84;21012;-41
2021/12/27 19:52:11;;;;;;;55.90;24.93;;;;;;;-4.25;74.73;98825.58;1702765;84;21599;-41
2021/12/27 19:54:37;;;;;;;57.15;25.43;;;;;;;-4.19;74.27;98815.27;1702446;84;20989;-41